Nearby METAR Reports

 

KBFI - Seattle/Boeing, Washington, USA
Distance from station: S 4mi, 7km
Updated: 2018-12-18 08:53
Partly cloudy
Partly cloudy
 Wind from S
Wind: S 20 mph , 31 km/h, Gust: 29 mph , 46 km/h
Temperature: 52°F , 11°C
Dew Point: 46°F , 8°C
Humidity: 82%
Barometer: 29.65 inHg , 1004.1 hPa
Clouds: Partly cloudy
Visibility: 10 miles , 16 km
Cloud details: Few Clouds 1000 ft
Partly cloudy 3500 ft
Partly cloudy 9000 ft
2018/12/18 16:53 KBFI 181653Z 17017G25KT 10SM FEW010 SCT035 SCT090 11/08 A2965 RMK AO2 RAE16 SLP040 P0001 T01060078 $
KRNT - Renton, Washington, USA
Distance from station: SSE 9mi, 14km
Updated: 2018-12-18 09:28
Partly cloudy
Partly cloudy
 Wind from SSE
Wind: SSE 13 mph , 20 km/h
Temperature: 52°F , 11°C
Dew Point: 48°F , 9°C
Humidity: 88%
Barometer: 29.69 inHg , 1005.4 hPa
Clouds: Partly cloudy
Visibility: 10 miles , 16 km
Cloud details: Few Clouds 2100 ft
Partly cloudy 2800 ft
2018/12/18 17:28 KRNT 181728Z 16011KT 10SM FEW021 SCT028 11/09 A2969 RMK AO2 T01110094 $
 
KSEA - Seattle/Metro, Washington, USA
Distance from station: S 11mi, 18km
Updated: 2018-12-18 09:18
Mostly cloudy
Mostly cloudy
 Wind from SSW
Wind: SSW 16 mph , 26 km/h, Gust: 23 mph , 37 km/h
Temperature: 50°F , 10°C
Wind Chill: 44°F , 7°C
Dew Point: 46°F , 8°C
Humidity: 88%
Barometer: 29.68 inHg , 1005.1 hPa
Clouds: Mostly cloudy
Visibility: 10 miles , 16 km
Cloud details: Few Clouds 900 ft
Partly cloudy 2600 ft
Mostly cloudy 14000 ft
2018/12/18 17:18 KSEA 181718Z 20014G20KT 10SM FEW009 SCT026 BKN140 10/08 A2968 RMK AO2 T01000078
KPAE - Everett, Washington, USA
Distance from station: N 21mi, 34km
Updated: 2018-12-18 09:42
Mostly cloudy
Mostly cloudy
 Wind from S
Wind: S 18 mph , 30 km/h, Gust: 23 mph , 37 km/h
Temperature: 48°F , 9°C
Wind Chill: 41°F , 5°C
Dew Point: 45°F , 7°C
Humidity: 87%
Barometer: 29.64 inHg , 1003.7 hPa
Clouds: Mostly cloudy
Visibility: 10 miles , 16 km
Cloud details: Mostly cloudy 1400 ft
2018/12/18 17:42 KPAE 181742Z 17016G20KT 10SM BKN014 09/07 A2964 RMK AO2 T00940072
 
KPWT - Bremerton Ntnl, Washington, USA
Distance from station: WSW 22mi, 35km
Updated: 2018-12-18 08:56
Few Clouds
Few Clouds
 Wind from SSW
Wind: SSW 18 mph , 30 km/h, Gust: 23 mph , 37 km/h
Temperature: 46°F , 8°C
Wind Chill: 39°F , 4°C
Dew Point: 45°F , 7°C
Humidity: 93%
Barometer: 29.64 inHg , 1003.7 hPa
Clouds: Few Clouds
Visibility: 10 miles , 16 km
Cloud details: Few Clouds 1000 ft
2018/12/18 16:56 KPWT 181656Z AUTO 20016G20KT 10SM FEW010 08/07 A2964 RMK AO2 RAE1558 PRESRR SLP056 P0000 T00830072
KTIW - Tacoma, Washington, USA
Distance from station: SSW 27mi, 43km
Updated: 2018-12-18 08:53
Overcast
Overcast
 Wind from SSW
Wind: SSW 13 mph , 20 km/h
Temperature: 48°F , 9°C
Wind Chill: 43°F , 6°C
Dew Point: 46°F , 8°C
Humidity: 94%
Barometer: 29.68 inHg , 1005.1 hPa
Clouds: Overcast
Visibility: 10 miles , 16 km
Cloud details: Partly cloudy 1300 ft
Mostly cloudy 2200 ft
Overcast 8000 ft
2018/12/18 16:53 KTIW 181653Z 20011KT 10SM SCT013 BKN022 OVC080 09/08 A2968 RMK AO2 RAE13 SLP051 P0001 T00940078
 
KTCM - Tacoma/Mc Chord, Washington, USA
Distance from station: S 35mi, 56km
Updated: 2018-12-18 08:58
Mostly cloudy
Mostly cloudy
 Wind from S
Wind: S 16 mph , 26 km/h
Temperature: 50°F , 10°C
Wind Chill: 44°F , 7°C
Dew Point: 50°F , 10°C
Humidity: 100%
Barometer: 29.69 inHg , 1005.4 hPa
Clouds: Mostly cloudy
Visibility: 10 miles , 16 km
Cloud details: Few Clouds 3400 ft
Partly cloudy 4300 ft
Mostly cloudy 6500 ft
2018/12/18 16:58 KTCM 181658Z AUTO 19014KT 10SM FEW034 SCT043 BKN065 10/10 A2969 RMK AO2 RAE07 SLP059 P0001 T00980098 $
KPLU - Puyallup/Thun, Washington, USA
Distance from station: S 35mi, 57km
Updated: 2018-12-18 09:35
Mostly cloudy
Mostly cloudy
 Wind from SSW
Wind: SSW 8 mph , 13 km/h
Temperature: 48°F , 9°C
Wind Chill: 44°F , 7°C
Dew Point: 46°F , 8°C
Humidity: 94%
Barometer: 29.73 inHg , 1006.8 hPa
Clouds: Mostly cloudy
Visibility: 10 miles , 16 km
Cloud details: Few Clouds 4300 ft
Mostly cloudy 5500 ft
Mostly cloudy 6500 ft
2018/12/18 17:35 KPLU 181735Z AUTO 21007KT 10SM FEW043 BKN055 BKN065 09/08 A2973 RMK AO2
 
K0S9 - Port Townsend, Washington, USA
Distance from station: NW 38mi, 62km
Updated: 2018-12-18 09:35
Fog, Overcast
Fog, Overcast
 Wind from calm
Wind: Calm
Temperature: 43°F , 6°C
Dew Point: 43°F , 6°C
Humidity: 100%
Barometer: 29.60 inHg , 1002.4 hPa
Summary: Fog
Clouds: Overcast
Visibility: 1/2 mile , 0.8 km
Cloud details: Overcast 500 ft
2018/12/18 17:35 K0S9 181735Z AUTO 00000KT 1/2SM FG VV005 06/06 A2960 RMK AO2
KAWO - Arlington Muni, Washington, USA
Distance from station: N 39mi, 63km
Updated: 2018-12-18 08:56
Overcast
Overcast
 Wind from SSE
Wind: SSE 12 mph , 19 km/h
Temperature: 50°F , 10°C
Wind Chill: 45°F , 7°C
Dew Point: 46°F , 8°C
Humidity: 88%
Barometer: 29.61 inHg , 1002.7 hPa
Clouds: Overcast
Visibility: 10 miles , 16 km
Cloud details: Overcast 1600 ft
2018/12/18 16:56 KAWO 181656Z AUTO 15010KT 130V190 10SM OVC016 10/08 A2961 RMK AO2 RAE37 SLP031 P0003 T01000078
 
KGRF - Fort Lewis/Gray, Washington, USA
Distance from station: SSW 39mi, 64km
Updated: 2018-12-18 09:36
Light rain, Few clouds
Light rain, Few clouds
 Wind from S
Wind: S 12 mph , 19 km/h
Temperature: 48°F , 9°C
Wind Chill: 43°F , 6°C
Dew Point: 48°F , 9°C
Humidity: 100%
Barometer: 29.72 inHg , 1006.4 hPa
Summary: Light rain
Clouds: Few Clouds
Visibility: 10 miles , 16 km
Cloud details: Few Clouds 5500 ft
2018/12/18 17:36 KGRF 181736Z AUTO 17010KT 10SM -RA FEW055 09/09 A2972 RMK AO2 RAB36 SLP069 $
KSHN - Shelton, Washington, USA
Distance from station: SW 46mi, 75km
Updated: 2018-12-18 08:53
Overcast
Overcast
 Wind from SW
Wind: SW 15 mph , 24 km/h, Gust: 22 mph , 35 km/h
Temperature: 48°F , 9°C
Wind Chill: 42°F , 6°C
Dew Point: 45°F , 7°C
Humidity: 87%
Barometer: 29.65 inHg , 1004.1 hPa
Clouds: Overcast
Visibility: 10 miles , 16 km
Cloud details: Partly cloudy 3800 ft
Overcast 11000 ft
2018/12/18 16:53 KSHN 181653Z AUTO 23013G19KT 10SM SCT038 OVC110 09/07 A2965 RMK AO2 SLP043 T00940067